Share

Iliamna, AK

12:07 PM AKDT on April 24, 2014 (GMT -0800)
Sparrevohn (PASV) Elev 1588 ft | 61.10 °N, 155.57 °W | Change Station

Current weather conditions updated 12 minutes ago

Clear
Clear
41 °F
Feels Like 37 °F
N
6
Wind Variable Wind from Variable
Sunrise 6:39 AM
Sunset 10:00 PM
Moon Waning Crescent

Today is forecast to be nearly the same temperature as yesterday.

Pressure 29.65 in
Visibility 10.0 miles
Clouds Clear
Windchill 37 °F
Dew Point 25 °F
Humidity 53%
Rainfall 0.00 in
Snow Depth Not available.
UV 4 out of 16
Pollen Not available.
Air Quality Not available.
Flu Activity Sporadic
METAR PASV 241955Z AUTO VRB05KT 10SM CLR 05/M04 A2959 RMK AO2 SLP039 T00501040

More Conditions Fewer Conditions

Pressure 29.65 in
Visibility 10.0 miles
Clouds Clear
Windchill 37 °F
Dew Point 25 °F
Humidity 53%
Rainfall 0.00 in
Snow Depth Not available.
UV 4 out of 16
Pollen Not available.
Air Quality Not available.
Flu Activity Sporadic
METAR PASV 241955Z AUTO VRB05KT 10SM CLR 05/M04 A2959 RMK AO2 SLP039 T00501040

More Conditions Fewer Conditions

10-Day Weather Forecast

Almanac

Astronomy

Apr. 24, 2014 Rise Set
Actual Time 6:39 AM AKDT 10:00 PM AKDT
Civil Twilight 5:50 AM AKDT 10:49 PM AKDT
Nautical Twilight 4:41 AM AKDT 12:00 AM AKDT
Astronomical Twilight 2:51 AM AKDT 1:46 AM AKDT
Moon 5:10 AM AKDT 4:21 PM AKDT
Length of Visible Light 16h 59m
Length of Day
15h 21m
Tomorrow will be 5m 13s longer.
Waning Crescent, 23% of the Moon is Illuminated
Today
Waning Crescent
Apr 29
New
May 6
First Quarter
May 14
Full
May 21
Last Quarter

Today's Extremes

State Highs State Lows

Community

  • Sunset at Apalachicola Bay, Florida
    Sunset at Apalachicola Bay, Florida
  • Clouds mov'n in
    Clouds mov'n in
  • Stacked
    Stacked
  • clouds approaching Red Sox Nation
    clouds approaching Red Sox Nation
  • Balance
    Balance

WunderPhotos

Upload Photos

1,704,713 photos uploaded!

Nearby

Snow Depth

Station Depth Elevation
Mcneil Canyon 3 in 1320 ft
Port Graham 2 in 300 ft
MF Bradley River 16 in 2300 ft
Nuka Glacier 26 in 1250 ft
Cooper Lake 17 in 1200 ft

Coastal Water Temperatures

Place Temperature
No Stations Reporting

Earthquake Activity

City Distance Mag. Time & Date
No recent earthquake activity has been reported nearby.
Minimum magnitude displayed is 2.5.

Nearby Weather Stations

Station Location Temp. Windchill Dew Point Humidity Wind Precip. Elev Updated Type
HADS UPPER TALARIK C NR ILIAMNA AK , Pedro Bay, AK 44 °F 44 °F - - North  at  - 0.00 in / hr 556 ft 11:00 AM AKDT MADIS
HADS KOKTULI R NR ILIAMNA AK , Iliamna, AK 41 °F 41 °F - - North  at  - 0.00 in / hr 851 ft 11:00 AM AKDT MADIS
HADS NF KOKTULI R NR ILIAMNA AK , Iliamna, AK 42 °F 42 °F - - North  at  - 0.00 in / hr 675 ft 11:00 AM AKDT MADIS

Show More Stations Show Fewer Stations

What do you think?

We're not finished. Please let us know what you like, what you don't like, and what you are still missing.